createdAt,value
2019-03-30T00:00:06.401Z,16.37
2019-03-30T00:02:35.747Z,13.27
2019-03-30T00:05:05.327Z,15.10
2019-03-30T00:07:33.945Z,12.83
2019-03-30T00:10:05.577Z,14.83
2019-03-30T00:12:34.148Z,12.90
2019-03-30T00:15:06.511Z,12.97
2019-03-30T00:17:35.070Z,12.33
2019-03-30T00:20:06.485Z,11.83
2019-03-30T00:22:37.789Z,12.53
2019-03-30T00:25:06.992Z,14.53
2019-03-30T00:27:35.598Z,12.67
2019-03-30T00:30:07.352Z,12.67
2019-03-30T00:32:35.930Z,13.73
2019-03-30T00:35:06.283Z,13.90
2019-03-30T00:37:34.818Z,13.77
2019-03-30T00:40:03.654Z,15.43
2019-03-30T00:42:34.314Z,13.50
2019-03-30T00:45:03.322Z,14.13
2019-03-30T00:47:31.886Z,12.17
2019-03-30T00:50:02.197Z,15.93
2019-03-30T00:52:30.773Z,11.97
2019-03-30T00:54:59.327Z,12.17
2019-03-30T00:57:27.931Z,14.50
2019-03-30T00:59:56.598Z,13.70
2019-03-30T01:02:25.163Z,13.17
2019-03-30T01:04:53.765Z,16.00
2019-03-30T01:07:22.484Z,12.67
2019-03-30T01:09:51.070Z,13.27
2019-03-30T01:12:19.733Z,17.47
2019-03-30T01:14:48.264Z,13.03
2019-03-30T01:17:16.912Z,14.07
2019-03-30T01:19:45.594Z,14.87
2019-03-30T01:22:14.158Z,11.97
2019-03-30T01:24:42.858Z,13.40
2019-03-30T01:27:11.462Z,10.40
2019-03-30T01:29:40.038Z,14.07
2019-03-30T01:32:08.686Z,12.33
2019-03-30T01:34:37.278Z,13.33
2019-03-30T01:37:08.594Z,11.20
2019-03-30T01:39:37.154Z,18.27
2019-03-30T01:42:11.740Z,13.63
2019-03-30T01:44:40.753Z,15.20
2019-03-30T01:47:09.458Z,14.63
2019-03-30T01:49:38.057Z,11.67
2019-03-30T01:52:06.708Z,13.77
2019-03-30T01:54:35.295Z,13.23
2019-03-30T01:57:03.924Z,11.63
2019-03-30T01:59:39.224Z,15.97
2019-03-30T02:02:07.800Z,12.67
2019-03-30T02:04:36.360Z,11.40
2019-03-30T02:07:04.955Z,12.60
2019-03-30T02:09:36.629Z,12.67
2019-03-30T02:12:05.316Z,14.73
2019-03-30T02:14:33.878Z,14.67
2019-03-30T02:17:02.441Z,11.57
2019-03-30T02:19:31.180Z,11.77
2019-03-30T02:22:00.755Z,12.73
2019-03-30T02:24:29.333Z,11.00
2019-03-30T02:26:57.996Z,10.23
2019-03-30T02:29:26.574Z,12.00
2019-03-30T02:31:55.200Z,16.13
2019-03-30T02:34:23.746Z,14.10
2019-03-30T02:36:52.312Z,17.13
2019-03-30T02:39:20.922Z,11.70
2019-03-30T02:41:52.454Z,11.03
2019-03-30T02:44:21.142Z,14.10
2019-03-30T02:46:49.704Z,10.57
2019-03-30T02:49:21.159Z,14.43
2019-03-30T02:51:50.205Z,10.93
2019-03-30T02:54:18.781Z,11.87
2019-03-30T02:56:47.466Z,13.63
2019-03-30T02:59:16.066Z,11.73
2019-03-30T03:01:44.793Z,13.87
2019-03-30T03:04:13.528Z,11.47
2019-03-30T03:06:42.095Z,15.60
2019-03-30T03:09:13.672Z,11.47
2019-03-30T03:11:42.274Z,10.13
2019-03-30T03:14:13.464Z,10.60
2019-03-30T03:16:42.067Z,10.83
2019-03-30T03:19:10.692Z,10.10
2019-03-30T03:21:39.351Z,9.83
2019-03-30T03:24:07.985Z,11.27
2019-03-30T03:26:36.555Z,10.97
2019-03-30T03:29:05.185Z,11.47
2019-03-30T03:31:33.771Z,12.33
2019-03-30T03:34:02.679Z,11.57
2019-03-30T03:36:31.328Z,10.50
2019-03-30T03:39:01.225Z,12.87
2019-03-30T03:41:29.773Z,9.97
2019-03-30T03:43:58.406Z,10.43
2019-03-30T03:46:26.987Z,13.20
2019-03-30T03:48:55.583Z,13.70
2019-03-30T03:51:26.536Z,10.90
2019-03-30T03:53:55.301Z,11.83
2019-03-30T03:56:25.763Z,13.50
2019-03-30T03:58:56.737Z,11.77
2019-03-30T04:01:27.235Z,11.17
2019-03-30T04:03:57.447Z,12.20
2019-03-30T04:06:27.754Z,11.53
2019-03-30T04:08:59.375Z,11.43
2019-03-30T04:11:30.270Z,10.90
2019-03-30T04:14:00.872Z,12.33
2019-03-30T04:16:29.644Z,11.60
2019-03-30T04:18:58.211Z,10.63
2019-03-30T04:21:43.580Z,11.03
2019-03-30T04:24:01.281Z,15.80
2019-03-30T04:26:29.880Z,11.57
2019-03-30T04:28:58.469Z,11.53
2019-03-30T04:31:27.114Z,13.73
2019-03-30T04:33:55.662Z,10.10
2019-03-30T04:36:29.498Z,12.77
2019-03-30T04:38:58.086Z,12.33
2019-03-30T04:41:26.713Z,10.97
2019-03-30T04:43:55.286Z,10.93
2019-03-30T04:46:26.650Z,12.20
2019-03-30T04:48:58.213Z,11.23
2019-03-30T04:51:26.817Z,13.83
2019-03-30T04:53:55.404Z,9.47
2019-03-30T04:56:23.978Z,10.80
2019-03-30T04:58:59.774Z,10.47
2019-03-30T05:01:28.756Z,12.43
2019-03-30T05:04:02.746Z,10.70
2019-03-30T05:06:31.330Z,15.23
2019-03-30T05:08:59.900Z,11.73
2019-03-30T05:11:28.553Z,11.93
2019-03-30T05:13:57.181Z,10.87
2019-03-30T05:16:25.862Z,10.93
2019-03-30T05:18:56.354Z,10.57
2019-03-30T05:21:24.700Z,12.20
2019-03-30T05:23:53.353Z,13.07
2019-03-30T05:26:21.904Z,11.43
2019-03-30T05:28:50.507Z,12.23
2019-03-30T05:31:19.213Z,13.50
2019-03-30T05:33:49.392Z,11.37
2019-03-30T05:36:19.516Z,12.17
2019-03-30T05:38:48.100Z,12.10
2019-03-30T05:41:16.704Z,12.63
2019-03-30T05:43:45.271Z,13.43
2019-03-30T05:46:13.860Z,13.83
2019-03-30T05:48:42.475Z,13.00
2019-03-30T05:51:11.106Z,14.33
2019-03-30T05:53:40.524Z,10.83
2019-03-30T05:56:12.075Z,13.13
2019-03-30T05:58:43.720Z,15.37
2019-03-30T06:01:12.472Z,13.23
2019-03-30T06:03:41.096Z,13.40
2019-03-30T06:06:09.792Z,12.33
2019-03-30T06:08:38.385Z,13.07
2019-03-30T06:11:07.286Z,13.87
2019-03-30T06:13:36.062Z,12.20
2019-03-30T06:16:04.640Z,12.47
2019-03-30T06:18:33.257Z,12.43
2019-03-30T06:21:01.854Z,11.50
2019-03-30T06:23:30.425Z,13.83
2019-03-30T06:26:01.824Z,13.50
2019-03-30T06:28:30.375Z,15.37
2019-03-30T06:30:58.946Z,14.87
2019-03-30T06:33:27.607Z,14.70
2019-03-30T06:35:56.261Z,12.33
2019-03-30T06:38:24.892Z,15.33
2019-03-30T06:40:54.373Z,12.87
2019-03-30T06:43:22.951Z,13.30
2019-03-30T06:45:51.543Z,12.97
2019-03-30T06:48:20.133Z,12.80
2019-03-30T06:50:48.770Z,15.67
2019-03-30T06:53:18.270Z,17.83
2019-03-30T06:55:46.912Z,13.87
2019-03-30T06:58:15.536Z,16.30
2019-03-30T07:00:45.345Z,13.60
2019-03-30T07:03:13.986Z,16.03
2019-03-30T07:05:43.224Z,15.70
2019-03-30T07:08:20.611Z,17.70
2019-03-30T07:10:51.342Z,13.07
2019-03-30T07:13:19.939Z,15.57
2019-03-30T07:15:49.328Z,15.50
2019-03-30T07:18:18.458Z,15.67
2019-03-30T07:20:47.187Z,17.17
2019-03-30T07:23:16.061Z,16.10
2019-03-30T07:25:44.736Z,15.07
2019-03-30T07:28:13.387Z,15.17
2019-03-30T07:30:42.512Z,14.30
2019-03-30T07:33:13.193Z,15.53
2019-03-30T07:35:41.796Z,16.30
2019-03-30T07:38:10.410Z,20.23
2019-03-30T07:40:39.007Z,16.93
2019-03-30T07:43:07.658Z,14.47
2019-03-30T07:45:36.298Z,15.90
2019-03-30T07:48:07.566Z,16.27
2019-03-30T07:50:36.213Z,14.43
2019-03-30T07:53:07.819Z,18.03
2019-03-30T07:55:42.450Z,20.83
2019-03-30T07:58:17.039Z,15.43
2019-03-30T08:00:45.618Z,14.90
2019-03-30T08:03:14.435Z,14.50
2019-03-30T08:05:43.101Z,19.47
2019-03-30T08:08:13.261Z,13.90
2019-03-30T08:10:41.968Z,16.33
2019-03-30T08:13:10.563Z,15.33
2019-03-30T08:15:39.155Z,17.10
2019-03-30T08:18:07.704Z,16.00
2019-03-30T08:20:36.391Z,14.77
2019-03-30T08:23:05.145Z,16.70
2019-03-30T08:25:34.993Z,15.23
2019-03-30T08:28:03.591Z,15.60
2019-03-30T08:30:37.811Z,14.57
2019-03-30T08:33:16.329Z,17.73
2019-03-30T08:35:44.886Z,18.03
2019-03-30T08:38:13.790Z,18.60
2019-03-30T08:40:44.467Z,16.73
2019-03-30T08:43:19.955Z,17.17
2019-03-30T08:45:49.831Z,17.47
2019-03-30T08:48:18.553Z,16.33
2019-03-30T08:50:50.145Z,15.33
2019-03-30T08:53:18.734Z,19.03
2019-03-30T08:55:50.313Z,18.47
2019-03-30T08:58:18.888Z,18.17
2019-03-30T09:00:48.426Z,17.40
2019-03-30T09:03:19.926Z,17.40
2019-03-30T09:05:48.570Z,14.80
2019-03-30T09:08:27.566Z,15.43
2019-03-30T09:10:56.215Z,18.23
2019-03-30T09:13:28.518Z,17.53
2019-03-30T09:16:03.524Z,18.00
2019-03-30T09:18:43.964Z,17.17
2019-03-30T09:21:14.770Z,21.33
2019-03-30T09:24:08.263Z,18.03
2019-03-30T09:26:23.103Z,17.87
2019-03-30T09:28:56.487Z,17.43
2019-03-30T09:31:31.468Z,21.33
2019-03-30T09:34:06.726Z,22.97
2019-03-30T09:36:35.689Z,18.40
2019-03-30T09:39:10.938Z,17.43
2019-03-30T09:41:42.058Z,18.93
2019-03-30T09:44:13.648Z,16.57
2019-03-30T09:46:42.360Z,19.43
2019-03-30T09:49:11.047Z,18.67
2019-03-30T09:51:39.646Z,22.87
2019-03-30T09:54:23.047Z,18.77
2019-03-30T09:56:42.569Z,21.90
2019-03-30T09:59:11.400Z,22.07
2019-03-30T10:01:39.983Z,16.37
2019-03-30T10:04:11.400Z,20.23
2019-03-30T10:06:43.077Z,17.47
2019-03-30T10:09:13.932Z,19.03
2019-03-30T10:11:46.857Z,25.73
2019-03-30T10:14:23.982Z,22.40
2019-03-30T10:16:52.875Z,19.13
2019-03-30T10:19:21.444Z,18.27
2019-03-30T10:21:50.422Z,15.53
2019-03-30T10:24:21.667Z,19.43
2019-03-30T10:27:10.498Z,18.00
2019-03-30T10:29:39.102Z,21.30
2019-03-30T10:32:07.655Z,21.90
2019-03-30T10:34:39.444Z,24.27
2019-03-30T10:37:06.459Z,15.17
2019-03-30T10:39:35.045Z,17.60
2019-03-30T10:42:04.665Z,25.50
2019-03-30T10:44:33.228Z,22.27
2019-03-30T10:47:08.853Z,15.27
2019-03-30T10:49:38.689Z,18.63
2019-03-30T10:52:07.335Z,21.53
2019-03-30T10:54:35.921Z,23.43
2019-03-30T10:57:04.561Z,24.07
2019-03-30T10:59:33.311Z,21.97
2019-03-30T11:02:01.854Z,18.60
2019-03-30T11:04:30.512Z,23.37
2019-03-30T11:06:59.130Z,21.47
2019-03-30T11:09:36.180Z,24.33
2019-03-30T11:12:04.841Z,22.80
2019-03-30T11:14:33.432Z,19.93
2019-03-30T11:17:07.459Z,21.87
2019-03-30T11:19:36.117Z,21.90
2019-03-30T11:22:07.355Z,24.47
2019-03-30T11:24:36.013Z,18.87
2019-03-30T11:27:04.754Z,17.63
2019-03-30T11:29:33.393Z,19.57
2019-03-30T11:32:06.125Z,22.17
2019-03-30T11:34:40.710Z,21.50
2019-03-30T11:37:11.756Z,17.90
2019-03-30T11:39:46.053Z,17.80
2019-03-30T11:42:14.627Z,17.43
2019-03-30T11:44:43.246Z,17.97
2019-03-30T11:47:11.812Z,17.73
2019-03-30T11:49:40.387Z,18.37
2019-03-30T11:52:14.769Z,19.33
2019-03-30T11:54:50.075Z,18.00
2019-03-30T11:57:19.228Z,20.57
2019-03-30T11:59:47.795Z,18.53
2019-03-30T12:02:27.465Z,17.60
2019-03-30T12:04:47.854Z,17.60
2019-03-30T12:07:20.271Z,18.57
2019-03-30T12:09:48.848Z,19.27
2019-03-30T12:12:18.729Z,17.90
2019-03-30T12:15:14.455Z,17.90
2019-03-30T12:17:47.644Z,15.07
2019-03-30T12:20:51.472Z,15.50
2019-03-30T12:23:27.059Z,16.30
2019-03-30T12:25:58.744Z,18.87
2019-03-30T12:28:30.092Z,19.73
2019-03-30T12:30:58.796Z,19.37
2019-03-30T12:33:34.745Z,15.90
2019-03-30T12:36:10.398Z,15.73
2019-03-30T12:38:39.093Z,16.70
2019-03-30T12:41:13.303Z,20.00
2019-03-30T12:43:41.927Z,14.87
2019-03-30T12:46:14.074Z,17.00
2019-03-30T12:48:51.963Z,15.23
2019-03-30T12:51:21.443Z,16.63
2019-03-30T12:53:52.467Z,15.07
2019-03-30T12:56:27.974Z,19.63
2019-03-30T12:59:16.806Z,17.70
2019-03-30T13:01:31.383Z,16.70
2019-03-30T13:04:01.147Z,15.03
2019-03-30T13:06:35.685Z,17.97
2019-03-30T13:09:17.894Z,16.13
2019-03-30T13:11:49.642Z,17.13
2019-03-30T13:14:20.390Z,14.37
2019-03-30T13:17:19.084Z,15.40
2019-03-30T13:19:47.534Z,16.07
2019-03-30T13:22:16.114Z,16.27
2019-03-30T13:25:08.893Z,14.60
2019-03-30T13:27:57.649Z,16.93
2019-03-30T13:30:17.060Z,14.33
2019-03-30T13:32:45.724Z,14.57
2019-03-30T13:35:14.694Z,13.90
2019-03-30T13:37:43.291Z,15.27
2019-03-30T13:40:14.936Z,13.23
2019-03-30T13:42:53.456Z,15.53
2019-03-30T13:45:28.257Z,11.53
2019-03-30T13:47:57.303Z,12.23
2019-03-30T13:50:25.902Z,17.40
2019-03-30T13:52:54.468Z,12.50
2019-03-30T13:55:23.100Z,11.43
2019-03-30T13:57:51.640Z,12.63
2019-03-30T14:00:20.341Z,15.67
2019-03-30T14:02:54.975Z,10.57
2019-03-30T14:05:23.827Z,13.30
2019-03-30T14:07:52.430Z,13.47
2019-03-30T14:10:21.152Z,11.73
2019-03-30T14:12:52.459Z,14.60
2019-03-30T14:15:21.134Z,10.23
2019-03-30T14:17:49.736Z,12.37
2019-03-30T14:20:18.320Z,12.73
2019-03-30T14:22:55.518Z,14.43
2019-03-30T14:25:24.005Z,13.87
2019-03-30T14:27:56.802Z,19.30
2019-03-30T14:30:30.001Z,13.20
2019-03-30T14:33:04.201Z,13.10
2019-03-30T14:35:37.353Z,15.10
2019-03-30T14:38:10.019Z,16.07
2019-03-30T14:40:38.622Z,15.00
2019-03-30T14:43:07.190Z,16.93
2019-03-30T14:45:35.844Z,12.50
2019-03-30T14:48:04.518Z,12.70
2019-03-30T14:50:35.891Z,14.17
2019-03-30T14:53:06.564Z,15.40
2019-03-30T14:55:34.877Z,14.37
2019-03-30T14:58:03.526Z,13.53
2019-03-30T15:00:32.242Z,13.57
2019-03-30T15:03:00.797Z,16.80
2019-03-30T15:05:29.416Z,14.60
2019-03-30T15:07:58.975Z,14.30
2019-03-30T15:10:28.013Z,13.87
2019-03-30T15:12:56.596Z,14.33
2019-03-30T15:15:25.631Z,12.47
2019-03-30T15:17:54.259Z,12.03
2019-03-30T15:20:25.598Z,14.73
2019-03-30T15:22:54.195Z,15.07
2019-03-30T15:25:22.857Z,11.07
2019-03-30T15:27:51.559Z,10.20
2019-03-30T15:30:20.143Z,13.03
2019-03-30T15:32:49.065Z,11.83
2019-03-30T15:35:17.688Z,13.27
2019-03-30T15:37:46.347Z,12.87
2019-03-30T15:40:15.065Z,14.50
2019-03-30T15:42:45.177Z,12.87
2019-03-30T15:45:14.246Z,12.87
2019-03-30T15:47:42.888Z,18.30
2019-03-30T15:50:12.090Z,13.13
2019-03-30T15:52:49.026Z,12.50
2019-03-30T15:55:17.620Z,14.67
2019-03-30T15:57:50.624Z,13.93
2019-03-30T16:00:19.776Z,11.40
2019-03-30T16:02:49.911Z,14.43
2019-03-30T16:05:18.534Z,14.03
2019-03-30T16:07:47.206Z,14.60
2019-03-30T16:10:18.711Z,14.07
2019-03-30T16:12:48.808Z,14.03
2019-03-30T16:15:18.952Z,15.40
2019-03-30T16:17:49.977Z,15.57
2019-03-30T16:20:18.816Z,15.53
2019-03-30T16:22:53.691Z,16.07
2019-03-30T16:25:27.907Z,17.63
2019-03-30T16:28:04.473Z,18.30
2019-03-30T16:30:33.510Z,16.50
2019-03-30T16:33:05.041Z,14.70
2019-03-30T16:35:33.607Z,15.27
2019-03-30T16:38:02.231Z,14.77
2019-03-30T16:40:30.858Z,14.60
2019-03-30T16:42:59.424Z,17.57
2019-03-30T16:45:31.255Z,17.33
2019-03-30T16:47:59.821Z,14.87
2019-03-30T16:50:28.421Z,15.90
2019-03-30T16:52:57.927Z,15.70
2019-03-30T16:55:28.183Z,18.60
2019-03-30T16:57:59.597Z,10.17
2019-03-30T17:00:32.450Z,14.67
2019-03-30T17:03:08.497Z,14.57
2019-03-30T17:05:37.055Z,16.43
2019-03-30T17:08:05.634Z,15.07
2019-03-30T17:10:36.332Z,15.53
2019-03-30T17:13:04.972Z,14.93
2019-03-30T17:15:33.605Z,16.77
2019-03-30T17:18:02.196Z,14.13
2019-03-30T17:20:36.613Z,16.37
2019-03-30T17:23:05.270Z,15.23
2019-03-30T17:25:33.861Z,13.30
2019-03-30T17:28:02.438Z,16.30
2019-03-30T17:30:31.043Z,12.83
2019-03-30T17:32:59.601Z,19.20
2019-03-30T17:35:28.175Z,18.37
2019-03-30T17:38:00.929Z,17.27
2019-03-30T17:40:29.481Z,19.53
2019-03-30T17:42:58.070Z,21.93
2019-03-30T17:45:27.064Z,20.03
2019-03-30T17:47:55.650Z,18.20
2019-03-30T17:50:24.216Z,19.53
2019-03-30T17:52:52.830Z,20.33
2019-03-30T17:55:33.117Z,23.40
2019-03-30T17:57:54.347Z,21.50
2019-03-30T18:00:22.998Z,22.93
2019-03-30T18:02:53.099Z,19.67
2019-03-30T18:05:21.711Z,23.90
2019-03-30T18:07:50.280Z,21.53
2019-03-30T18:10:18.992Z,21.83
2019-03-30T18:12:47.613Z,22.90
2019-03-30T18:15:17.187Z,23.77
2019-03-30T18:17:46.075Z,24.97
2019-03-30T18:20:15.832Z,29.00
2019-03-30T18:22:44.433Z,23.80
2019-03-30T18:25:14.998Z,23.67
2019-03-30T18:27:44.422Z,22.77
2019-03-30T18:30:21.827Z,25.13
2019-03-30T18:32:53.646Z,27.50
2019-03-30T18:35:22.215Z,28.80
2019-03-30T18:37:54.873Z,29.87
2019-03-30T18:40:33.732Z,26.47
2019-03-30T18:43:03.941Z,23.63
2019-03-30T18:45:32.754Z,26.27
2019-03-30T18:48:15.056Z,38.00
2019-03-30T18:50:43.868Z,32.83
2019-03-30T18:53:18.092Z,28.47
2019-03-30T18:55:46.833Z,28.00
2019-03-30T18:58:15.538Z,26.83
2019-03-30T19:00:44.208Z,29.10
2019-03-30T19:03:12.939Z,27.07
2019-03-30T19:05:41.516Z,25.40
2019-03-30T19:08:10.169Z,22.03
2019-03-30T19:10:38.750Z,29.43
2019-03-30T19:13:07.363Z,25.47
2019-03-30T19:15:36.183Z,26.23
2019-03-30T19:18:04.891Z,22.50
2019-03-30T19:20:33.550Z,24.57
2019-03-30T19:23:08.149Z,26.57
2019-03-30T19:25:36.837Z,23.93
2019-03-30T19:28:06.489Z,31.53
2019-03-30T19:30:36.383Z,26.53
2019-03-30T19:33:05.068Z,24.13
2019-03-30T19:35:33.625Z,25.90
2019-03-30T19:38:06.990Z,27.77
2019-03-30T19:40:36.836Z,21.93
2019-03-30T19:43:08.074Z,24.17
2019-03-30T19:45:37.239Z,22.20
2019-03-30T19:48:08.508Z,20.73
2019-03-30T19:50:38.006Z,22.00
2019-03-30T19:53:08.247Z,20.27
2019-03-30T19:55:36.851Z,24.27
2019-03-30T19:58:06.438Z,26.47
2019-03-30T20:00:38.942Z,22.17
2019-03-30T20:03:07.816Z,23.90
2019-03-30T20:05:38.496Z,28.03
2019-03-30T20:08:12.348Z,25.37
2019-03-30T20:10:44.092Z,28.23
2019-03-30T20:13:18.941Z,20.27
2019-03-30T20:15:47.996Z,24.20
2019-03-30T20:18:16.788Z,24.57
2019-03-30T20:20:45.469Z,24.10
2019-03-30T20:23:14.083Z,25.60
2019-03-30T20:25:42.670Z,25.50
2019-03-30T20:28:11.252Z,23.93
2019-03-30T20:30:41.388Z,26.27
2019-03-30T20:33:09.960Z,25.07
2019-03-30T20:35:39.548Z,25.17
2019-03-30T20:38:08.120Z,22.93
2019-03-30T20:40:40.301Z,25.30
2019-03-30T20:43:13.705Z,26.17
2019-03-30T20:45:42.464Z,25.20
2019-03-30T20:48:11.325Z,23.20
2019-03-30T20:50:39.991Z,24.47
2019-03-30T20:53:10.227Z,24.50
2019-03-30T20:55:38.856Z,21.17
2019-03-30T20:58:10.173Z,29.60
2019-03-30T21:00:38.750Z,23.93
2019-03-30T21:03:07.692Z,23.10
2019-03-30T21:05:37.737Z,25.67
2019-03-30T21:08:06.377Z,22.73
2019-03-30T21:10:36.577Z,19.77
2019-03-30T21:13:05.219Z,21.63
2019-03-30T21:15:33.970Z,22.40
2019-03-30T21:18:02.620Z,21.60
2019-03-30T21:20:31.220Z,16.87
2019-03-30T21:22:59.805Z,21.63
2019-03-30T21:25:28.451Z,18.07
2019-03-30T21:27:57.145Z,19.30
2019-03-30T21:30:25.719Z,17.10
2019-03-30T21:32:54.330Z,16.93
2019-03-30T21:35:22.982Z,18.63
2019-03-30T21:37:51.574Z,19.47
2019-03-30T21:40:21.212Z,17.23
2019-03-30T21:42:49.883Z,20.17
2019-03-30T21:45:18.568Z,18.83
2019-03-30T21:47:47.194Z,17.57
2019-03-30T21:50:15.833Z,18.83
2019-03-30T21:52:44.564Z,20.90
2019-03-30T21:55:13.623Z,18.50
2019-03-30T21:57:42.295Z,19.73
2019-03-30T22:00:19.506Z,20.77
2019-03-30T22:02:53.760Z,20.10
2019-03-30T22:05:25.129Z,18.40
2019-03-30T22:08:02.100Z,19.27
2019-03-30T22:10:32.642Z,18.33
2019-03-30T22:13:07.765Z,22.37
2019-03-30T22:15:39.060Z,19.70
2019-03-30T22:18:07.620Z,19.43
2019-03-30T22:20:36.337Z,21.53
2019-03-30T22:23:05.190Z,20.17
2019-03-30T22:25:35.322Z,20.60
2019-03-30T22:28:05.467Z,18.80
2019-03-30T22:30:35.572Z,23.57
2019-03-30T22:33:06.571Z,21.00
2019-03-30T22:35:35.203Z,21.40
2019-03-30T22:38:04.084Z,22.37
2019-03-30T22:40:32.840Z,18.80
2019-03-30T22:43:01.419Z,21.13
2019-03-30T22:45:30.100Z,26.67
2019-03-30T22:47:58.688Z,20.87
2019-03-30T22:50:27.501Z,28.97
2019-03-30T22:52:56.160Z,23.00
2019-03-30T22:55:24.760Z,19.97
2019-03-30T22:57:53.456Z,20.40
2019-03-30T23:00:41.916Z,23.13
2019-03-30T23:03:16.796Z,23.63
2019-03-30T23:05:45.407Z,24.80
2019-03-30T23:08:13.983Z,21.97
2019-03-30T23:10:42.638Z,18.87
2019-03-30T23:13:11.277Z,24.43
2019-03-30T23:15:39.975Z,20.87
2019-03-30T23:18:08.571Z,20.27
2019-03-30T23:20:40.143Z,22.13
2019-03-30T23:23:09.143Z,21.80
2019-03-30T23:25:37.790Z,18.83
2019-03-30T23:28:09.255Z,22.57
2019-03-30T23:30:37.855Z,20.63
2019-03-30T23:33:09.249Z,18.70
2019-03-30T23:35:37.834Z,19.13
2019-03-30T23:38:06.474Z,19.50
2019-03-30T23:40:35.079Z,20.63
2019-03-30T23:43:03.742Z,22.80
2019-03-30T23:45:32.621Z,19.00
2019-03-30T23:48:01.473Z,20.23
2019-03-30T23:50:32.712Z,21.30
2019-03-30T23:53:01.348Z,20.70
2019-03-30T23:55:29.944Z,18.30
2019-03-30T23:57:58.513Z,20.03
